Time;durP1;ratioP1;P1;durP2;ratioP2;P2;SDS_P1;SDS_P2;PMS_P1;PMS_P2;Temp;Humidity;BMP_temperature;BMP_pressure;BME280_temperature;BME280_humidity;BME280_pressure;Samples;Min_cycle;Max_cycle;Signal;HPM_P1;HPM_P2
2021/09/28 00:02:25;;;;;;;9.13;4.40;;;26.10;99.90;;;;;;1841270;73;21922;-89
2021/09/28 00:04:56;;;;;;;8.60;4.37;;;26.20;99.90;;;;;;1858208;75;21155;-90
2021/09/28 00:07:27;;;;;;;7.25;3.60;;;26.20;99.90;;;;;;1926559;71;21052;-90
2021/09/28 00:09:58;;;;;;;7.20;3.87;;;26.20;99.90;;;;;;1946628;72;21572;-89
2021/09/28 00:12:32;;;;;;;7.55;4.25;;;26.20;99.90;;;;;;1928504;72;21113;-89
2021/09/28 00:15:04;;;;;;;9.70;4.53;;;26.20;99.90;;;;;;1937901;72;22133;-89
2021/09/28 00:17:35;;;;;;;8.53;3.98;;;26.20;99.90;;;;;;1940820;72;21182;-89
2021/09/28 00:20:08;;;;;;;12.43;4.12;;;26.30;99.90;;;;;;1917360;73;21200;-88
2021/09/28 00:22:40;;;;;;;7.05;3.70;;;26.30;99.90;;;;;;1927735;73;21758;-89
2021/09/28 00:25:11;;;;;;;8.35;4.00;;;26.30;99.90;;;;;;1934926;72;21167;-91
2021/09/28 00:27:42;;;;;;;8.85;4.30;;;26.40;99.90;;;;;;1951337;72;21125;-88
2021/09/28 00:30:13;;;;;;;7.10;3.90;;;26.40;99.90;;;;;;1912776;73;21648;-89
2021/09/28 00:32:44;;;;;;;6.65;3.52;;;26.40;99.90;;;;;;1916782;72;21173;-88
2021/09/28 00:35:14;;;;;;;8.10;4.08;;;26.50;99.90;;;;;;1946014;72;21123;-89
2021/09/28 00:37:45;;;;;;;8.28;3.58;;;26.50;99.90;;;;;;1935271;74;21105;-88
2021/09/28 00:40:16;;;;;;;6.65;3.90;;;26.60;99.90;;;;;;1947204;72;21591;-89
2021/09/28 00:42:47;;;;;;;7.03;3.37;;;26.60;99.90;;;;;;1945343;72;21159;-89
2021/09/28 00:45:18;;;;;;;9.13;3.60;;;26.60;99.90;;;;;;1936058;73;22616;-89
2021/09/28 00:47:49;;;;;;;7.15;3.90;;;26.60;99.90;;;;;;1924383;73;21142;-90
2021/09/28 00:50:20;;;;;;;10.48;4.12;;;26.60;99.90;;;;;;1938248;72;21708;-86
2021/09/28 00:52:51;;;;;;;6.75;3.62;;;26.60;99.90;;;;;;1932432;73;21156;-89
2021/09/28 00:55:27;;;;;;;7.12;3.87;;;26.60;99.90;;;;;;1930420;72;21057;-90
2021/09/28 00:58:08;;;;;;;8.48;4.53;;;26.60;99.90;;;;;;1922987;72;21688;-86
2021/09/28 01:00:33;;;;;;;11.60;5.03;;;26.60;99.90;;;;;;1934260;72;21069;-86
2021/09/28 01:03:05;;;;;;;8.68;4.22;;;26.70;99.90;;;;;;1947156;72;21155;-87
2021/09/28 01:05:36;;;;;;;7.08;4.72;;;26.70;99.90;;;;;;1924920;74;21124;-89
2021/09/28 01:08:07;;;;;;;9.63;4.70;;;26.80;99.90;;;;;;1928536;72;21179;-87
2021/09/28 01:10:38;;;;;;;7.50;4.20;;;26.80;99.90;;;;;;1937449;73;21146;-88
2021/09/28 01:13:09;;;;;;;6.53;3.65;;;26.80;99.90;;;;;;1938145;72;21159;-89
2021/09/28 01:15:40;;;;;;;8.58;3.90;;;26.90;99.90;;;;;;1937564;73;21166;-89
2021/09/28 01:18:10;;;;;;;7.95;3.98;;;26.90;99.90;;;;;;1933259;74;21092;-88
2021/09/28 01:20:41;;;;;;;4.30;2.95;;;27.00;99.90;;;;;;1947617;72;21665;-88
2021/09/28 01:23:12;;;;;;;5.42;3.52;;;27.00;99.90;;;;;;1941716;72;21675;-88
2021/09/28 01:25:43;;;;;;;6.83;4.20;;;27.00;99.90;;;;;;1942857;72;21135;-89
2021/09/28 01:28:14;;;;;;;6.72;3.60;;;27.00;99.90;;;;;;1927672;72;21523;-90
2021/09/28 01:30:45;;;;;;;6.92;3.47;;;27.10;99.90;;;;;;1925072;72;21697;-90
2021/09/28 01:33:17;;;;;;;8.95;4.42;;;27.10;99.90;;;;;;1900171;75;21588;-89
2021/09/28 01:35:48;;;;;;;4.78;3.85;;;27.20;99.90;;;;;;1907949;74;21135;-90
2021/09/28 01:38:19;;;;;;;6.30;3.75;;;27.20;99.90;;;;;;1913598;73;21086;-86
2021/09/28 01:40:50;;;;;;;6.17;3.52;;;27.30;99.90;;;;;;1919108;70;21345;-87
2021/09/28 01:43:20;;;;;;;5.17;3.50;;;27.30;99.90;;;;;;1919516;74;21155;-87
2021/09/28 01:45:53;;;;;;;7.37;3.70;;;27.30;99.90;;;;;;1933658;72;21117;-86
2021/09/28 01:48:27;;;;;;;4.70;4.20;;;27.30;99.90;;;;;;1881041;75;21206;-88
2021/09/28 01:50:58;;;;;;;5.42;3.45;;;27.40;99.90;;;;;;1912567;72;21233;-76
2021/09/28 01:53:28;;;;;;;7.78;4.15;;;27.50;99.90;;;;;;1943746;72;21633;-77
2021/09/28 01:56:29;;;;;;;6.33;4.53;;;27.50;99.90;;;;;;1921973;73;21762;-77
2021/09/28 01:59:01;;;;;;;8.80;4.42;;;27.60;99.90;;;;;;1931925;74;21116;-78
2021/09/28 02:01:32;;;;;;;7.67;4.08;;;27.70;99.90;;;;;;1949286;72;21129;-77
2021/09/28 02:10:48;;;;;;;5.70;3.10;;;27.90;99.90;;;;;;1938865;72;21061;-76
2021/09/28 02:13:19;;;;;;;5.15;3.62;;;28.00;99.90;;;;;;1913149;72;21150;-77
2021/09/28 02:19:18;;;;;;;6.92;3.25;;;28.10;99.90;;;;;;1935817;73;21688;-78
2021/09/28 02:21:49;;;;;;;5.08;3.27;;;28.20;99.90;;;;;;1929345;73;21552;-77
2021/09/28 02:24:21;;;;;;;5.37;3.45;;;28.30;99.90;;;;;;1916743;73;21142;-77
2021/09/28 02:26:52;;;;;;;5.55;3.33;;;28.40;99.90;;;;;;1928152;72;21635;-77
2021/09/28 02:29:23;;;;;;;6.15;3.45;;;28.50;99.90;;;;;;1908070;73;21108;-78
2021/09/28 02:31:57;;;;;;;7.17;3.40;;;28.60;99.90;;;;;;1919674;72;21160;-78
2021/09/28 02:34:28;;;;;;;6.28;3.22;;;28.70;99.90;;;;;;1939328;73;21139;-79
2021/09/28 02:36:59;;;;;;;8.63;3.50;;;28.70;99.90;;;;;;1951141;72;21637;-77
2021/09/28 02:39:30;;;;;;;6.33;3.35;;;28.80;99.90;;;;;;1955178;72;21688;-78
2021/09/28 02:42:02;;;;;;;4.62;3.35;;;28.80;99.90;;;;;;1965987;73;21143;-76
2021/09/28 02:44:34;;;;;;;6.20;3.40;;;28.90;99.90;;;;;;1969141;72;21302;-76
2021/09/28 02:47:05;;;;;;;4.45;3.25;;;29.00;99.90;;;;;;1944072;72;21136;-78
2021/09/28 02:49:36;;;;;;;5.65;2.98;;;29.10;99.90;;;;;;1854672;75;21273;-78
2021/09/28 02:52:07;;;;;;;4.87;2.92;;;29.20;99.90;;;;;;1932670;72;21527;-79
2021/09/28 02:54:38;;;;;;;6.53;3.50;;;29.20;99.90;;;;;;1945622;73;21051;-79
2021/09/28 02:57:09;;;;;;;5.42;3.27;;;29.20;99.90;;;;;;1956694;72;21642;-76
2021/09/28 02:59:40;;;;;;;4.97;3.40;;;29.20;99.90;;;;;;1924191;73;21143;-80
2021/09/28 03:02:17;;;;;;;6.53;3.70;;;29.30;99.90;;;;;;1935900;73;21086;-78
2021/09/28 03:04:48;;;;;;;6.08;3.40;;;29.40;99.90;;;;;;1947829;72;21277;-93
2021/09/28 03:07:20;;;;;;;5.65;3.50;;;29.50;99.90;;;;;;1974343;73;21077;-93
2021/09/28 03:09:51;;;;;;;5.45;3.52;;;29.70;99.90;;;;;;1949274;72;21201;-93
2021/09/28 03:12:23;;;;;;;5.10;3.47;;;29.90;99.90;;;;;;1961777;71;21170;-93
2021/09/28 03:14:54;;;;;;;6.12;3.77;;;30.00;99.90;;;;;;1957126;72;21163;-92
2021/09/28 03:17:26;;;;;;;6.53;3.65;;;30.10;99.90;;;;;;1946445;72;21156;-92
2021/09/28 03:19:57;;;;;;;4.92;3.17;;;30.20;99.90;;;;;;1921202;74;21166;-90
2021/09/28 03:22:28;;;;;;;8.28;4.72;;;30.30;99.60;;;;;;1909270;75;21214;-91
2021/09/28 03:24:58;;;;;;;6.35;3.42;;;30.40;99.70;;;;;;1911045;74;21175;-92
2021/09/28 03:27:29;;;;;;;5.65;3.47;;;30.40;99.60;;;;;;1936693;73;21108;-92
2021/09/28 03:30:01;;;;;;;4.42;3.30;;;30.40;99.80;;;;;;1922498;73;21221;-91
2021/09/28 03:32:32;;;;;;;5.03;3.40;;;30.50;99.70;;;;;;1955395;72;21072;-92
2021/09/28 03:35:08;;;;;;;4.50;3.10;;;30.60;99.20;;;;;;1949563;72;21137;-92
2021/09/28 03:37:38;;;;;;;4.55;3.10;;;30.70;98.80;;;;;;1953958;72;21116;-92
2021/09/28 03:40:14;;;;;;;4.42;3.15;;;30.80;98.70;;;;;;1912285;73;21184;-91
2021/09/28 03:42:46;;;;;;;6.97;3.75;;;30.90;98.50;;;;;;1966628;72;21116;-93
2021/09/28 03:45:17;;;;;;;5.10;2.92;;;31.00;97.50;;;;;;1957766;72;21859;-93
2021/09/28 03:47:48;;;;;;;3.80;2.58;;;31.10;97.50;;;;;;1916633;73;21143;-92
2021/09/28 03:53:25;;;;;;;6.00;3.08;;;31.40;96.80;;;;;;1920472;73;21139;-92
2021/09/28 03:55:58;;;;;;;6.28;2.70;;;31.50;97.10;;;;;;1930642;73;21080;-92
2021/09/28 03:58:28;;;;;;;4.58;2.65;;;31.50;96.90;;;;;;1934982;73;21928;-94
2021/09/28 04:01:20;;;;;;;5.33;3.00;;;31.50;97.20;;;;;;1937460;74;21041;-94
2021/09/28 04:03:51;;;;;;;4.53;3.00;;;31.50;97.00;;;;;;1929529;72;21082;-92
2021/09/28 04:06:22;;;;;;;3.92;2.90;;;31.50;97.00;;;;;;1924163;73;21149;-92
2021/09/28 04:08:53;;;;;;;5.25;2.60;;;31.70;96.00;;;;;;1946464;73;21646;-94
2021/09/28 04:11:24;;;;;;;2.98;2.42;;;31.80;95.30;;;;;;1916734;72;21154;-96
2021/09/28 04:14:00;;;;;;;4.50;3.47;;;31.90;95.80;;;;;;1921237;72;21111;-93
2021/09/28 04:16:32;;;;;;;7.50;3.20;;;32.00;95.80;;;;;;1914592;73;21145;-93
2021/09/28 04:25:27;;;;;;;6.80;4.40;;;32.10;95.10;;;;;;1935866;69;21069;-92
2021/09/28 04:27:58;;;;;;;4.53;3.17;;;32.20;95.30;;;;;;1954570;70;21416;-93
2021/09/28 04:30:29;;;;;;;4.30;3.12;;;32.10;94.60;;;;;;1935908;70;21135;-91
2021/09/28 04:33:23;;;;;;;6.45;3.83;;;32.00;94.50;;;;;;1948781;71;21123;-92
2021/09/28 04:39:03;;;;;;;4.55;2.85;;;31.60;94.90;;;;;;1893956;74;21141;-92
2021/09/28 04:41:34;;;;;;;8.18;2.98;;;31.50;95.60;;;;;;1927985;72;21618;-92
2021/09/28 04:44:05;;;;;;;8.60;3.60;;;31.60;95.10;;;;;;1925309;73;21125;-91
2021/09/28 04:46:36;;;;;;;5.22;3.00;;;31.70;95.30;;;;;;1882277;75;21131;-94
2021/09/28 04:49:14;;;;;;;5.00;3.02;;;31.70;95.00;;;;;;1908464;74;21175;-95
2021/09/28 04:51:44;;;;;;;5.20;3.17;;;31.60;95.00;;;;;;1901312;73;21237;-90
2021/09/28 04:54:15;;;;;;;9.05;3.27;;;31.50;94.60;;;;;;1926534;74;21161;-93
2021/09/28 04:56:47;;;;;;;5.83;3.40;;;31.40;94.90;;;;;;1893092;75;21095;-91
2021/09/28 04:59:18;;;;;;;5.00;2.72;;;31.30;95.50;;;;;;1901192;74;21862;-93
2021/09/28 05:01:49;;;;;;;5.33;3.00;;;31.20;95.20;;;;;;1927141;74;21223;-93
2021/09/28 05:04:21;;;;;;;4.42;3.08;;;31.10;95.70;;;;;;1916933;73;21166;-94
2021/09/28 05:06:52;;;;;;;5.37;2.65;;;31.10;95.70;;;;;;1932298;72;21172;-94
2021/09/28 05:09:22;;;;;;;5.05;3.00;;;30.90;95.50;;;;;;1927621;73;21550;-94
2021/09/28 05:11:55;;;;;;;6.42;3.65;;;30.90;95.70;;;;;;1910964;73;21119;-93
2021/09/28 05:32:31;;;;;;;4.30;3.30;;;30.90;95.30;;;;;;1683030;82;21254;-93
2021/09/28 05:47:21;;;;;;;4.60;3.30;;;31.00;95.20;;;;;;1949936;73;21189;-93
2021/09/28 05:49:52;;;;;;;6.35;3.52;;;30.90;95.40;;;;;;1941845;72;21132;-93
2021/09/28 05:52:24;;;;;;;5.00;3.25;;;30.90;95.50;;;;;;1937428;72;21249;-92
2021/09/28 05:54:58;;;;;;;6.25;4.05;;;31.00;96.20;;;;;;1936512;72;21229;-93
2021/09/28 05:57:47;;;;;;;6.85;3.58;;;31.00;96.40;;;;;;1939942;71;21208;-91
2021/09/28 06:00:19;;;;;;;5.25;3.40;;;31.00;96.00;;;;;;1942921;73;21151;-93
2021/09/28 06:02:50;;;;;;;6.53;3.22;;;31.00;95.10;;;;;;1917192;74;21125;-93
2021/09/28 06:05:21;;;;;;;5.85;3.70;;;30.90;95.90;;;;;;1927693;74;21167;-94
2021/09/28 06:07:55;;;;;;;6.53;4.17;;;30.90;95.80;;;;;;1927696;73;21198;-93
2021/09/28 06:10:37;;;;;;;8.60;4.58;;;30.90;95.70;;;;;;1917720;73;21214;-93
2021/09/28 06:13:08;;;;;;;5.53;3.30;;;30.90;95.90;;;;;;1963940;73;21198;-90
2021/09/28 06:15:39;;;;;;;4.03;3.00;;;30.90;96.00;;;;;;1950949;73;21112;-91
2021/09/28 06:18:10;;;;;;;4.37;3.35;;;31.00;95.50;;;;;;1923424;73;21567;-93
2021/09/28 06:20:41;;;;;;;4.90;3.00;;;31.10;95.10;;;;;;1960172;72;21184;-91
2021/09/28 06:23:13;;;;;;;4.87;2.98;;;31.30;94.50;;;;;;1964960;72;21132;-94
2021/09/28 06:25:45;;;;;;;4.78;3.05;;;31.40;94.00;;;;;;1928814;73;21181;-93
2021/09/28 06:28:18;;;;;;;5.80;3.60;;;31.60;95.00;;;;;;1934279;73;22317;-94
2021/09/28 06:30:53;;;;;;;4.72;3.08;;;31.70;94.20;;;;;;1943702;72;21162;-93
2021/09/28 06:33:28;;;;;;;4.33;2.87;;;31.60;93.80;;;;;;1933490;73;21715;-93
2021/09/28 06:36:03;;;;;;;5.28;2.87;;;31.50;93.50;;;;;;1942500;73;21197;-93
2021/09/28 06:38:32;;;;;;;4.42;3.08;;;31.40;94.00;;;;;;1931291;73;21172;-93
2021/09/28 06:41:06;;;;;;;4.53;3.20;;;31.30;94.20;;;;;;1916850;74;21221;-93
2021/09/28 06:43:42;;;;;;;5.08;3.12;;;31.20;94.50;;;;;;1920602;74;21664;-92
2021/09/28 06:46:13;;;;;;;3.95;2.95;;;31.10;94.50;;;;;;1922352;74;21217;-92
2021/09/28 06:48:44;;;;;;;4.42;3.30;;;31.00;94.30;;;;;;1908935;74;21309;-94
2021/09/28 06:51:16;;;;;;;5.85;3.12;;;30.90;94.70;;;;;;1934260;74;21152;-94
2021/09/28 06:53:48;;;;;;;5.10;3.00;;;30.90;95.00;;;;;;1939022;72;21046;-93
2021/09/28 06:56:20;;;;;;;4.65;3.45;;;30.80;94.80;;;;;;1913583;74;21658;-94
2021/09/28 06:58:52;;;;;;;5.20;3.30;;;30.70;94.80;;;;;;1935281;72;21158;-93
2021/09/28 07:01:23;;;;;;;3.62;3.00;;;30.70;94.40;;;;;;1946487;72;21072;-92
2021/09/28 07:10:05;;;;;;;6.12;3.72;;;30.60;95.40;;;;;;1948361;73;21103;-92
2021/09/28 07:12:38;;;;;;;5.83;3.85;;;30.60;96.40;;;;;;1942177;73;21195;-94
2021/09/28 07:15:13;;;;;;;4.15;3.30;;;30.60;96.50;;;;;;1925160;70;21072;-94
2021/09/28 07:21:21;;;;;;;6.62;3.35;;;30.60;96.40;;;;;;1809562;78;21264;-94
2021/09/28 07:23:52;;;;;;;8.08;4.00;;;30.60;95.80;;;;;;1814578;77;21312;-93
2021/09/28 07:26:23;;;;;;;7.15;3.95;;;30.60;96.50;;;;;;1823349;77;21215;-94
2021/09/28 07:28:55;;;;;;;7.03;4.50;;;30.60;96.00;;;;;;1823085;77;21182;-93
2021/09/28 07:31:28;;;;;;;5.58;3.85;;;30.70;95.90;;;;;;1843877;77;21142;-94
2021/09/28 07:33:59;;;;;;;5.53;3.40;;;30.70;95.50;;;;;;1831181;77;21226;-93
2021/09/28 07:36:30;;;;;;;6.17;3.80;;;30.90;95.50;;;;;;1834152;77;21234;-92
2021/09/28 07:39:14;;;;;;;5.67;3.37;;;31.00;95.90;;;;;;1838552;76;21243;-96
2021/09/28 07:41:37;;;;;;;5.22;3.55;;;31.10;95.20;;;;;;1848344;73;21092;-94
2021/09/28 07:44:08;;;;;;;4.53;3.45;;;31.20;95.30;;;;;;1845618;73;21139;-94
2021/09/28 07:46:42;;;;;;;6.50;3.95;;;31.20;95.10;;;;;;1834800;77;21113;-94
2021/09/28 07:49:13;;;;;;;7.75;3.87;;;31.30;95.50;;;;;;1815065;77;21226;-94
2021/09/28 07:51:49;;;;;;;7.40;3.80;;;31.40;95.30;;;;;;1807630;78;21178;-94
2021/09/28 07:54:19;;;;;;;5.12;3.35;;;31.30;94.70;;;;;;1819171;74;21188;-93
2021/09/28 07:57:05;;;;;;;;;;;;;;;;;;;;;
2021/09/28 08:11:38;;;;;;;6.20;3.05;;;31.30;93.20;;;;;;1901037;73;21483;-93
2021/09/28 08:14:10;;;;;;;6.17;3.20;;;31.40;93.40;;;;;;1809734;76;21394;-93
2021/09/28 08:16:48;;;;;;;4.20;3.10;;;31.50;92.70;;;;;;1898592;73;21408;-91
2021/09/28 08:19:25;;;;;;;7.60;3.90;;;31.50;92.00;;;;;;1862563;74;21162;-93
2021/09/28 08:22:10;;;;;;;5.80;3.10;;;31.50;92.50;;;;;;1886527;74;21156;-94
2021/09/28 08:33:12;;;;;;;6.65;3.50;;;31.60;93.90;;;;;;1919212;72;21906;-91
2021/09/28 08:35:58;;;;;;;8.35;3.30;;;31.70;93.60;;;;;;1925741;71;21630;-91
2021/09/28 08:38:46;;;;;;;4.62;3.17;;;31.60;94.20;;;;;;1922723;73;21134;-93
2021/09/28 08:41:21;;;;;;;6.15;3.33;;;31.50;94.10;;;;;;1923508;73;21139;-94
2021/09/28 08:43:55;;;;;;;;;;;31.40;94.90;;;;;;1894631;73;21170;-91
2021/09/28 08:46:25;;;;;;;8.60;3.40;;;31.40;94.60;;;;;;1918607;73;20230;-93
2021/09/28 08:49:14;;;;;;;;;;;;;;;;;;;;;
2021/09/28 08:51:46;;;;;;;5.55;3.27;;;31.30;94.50;;;;;;1912052;70;21245;-92
2021/09/28 08:54:42;;;;;;;5.95;3.83;;;31.30;94.50;;;;;;1793616;78;21100;-91
2021/09/28 08:57:08;;;;;;;6.50;3.47;;;31.30;93.80;;;;;;1822652;78;21151;-93
2021/09/28 09:00:04;;;;;;;;;;;;;;;;;;;;;
2021/09/28 09:02:55;;;;;;;7.62;3.33;;;31.40;93.80;;;;;;1852631;77;21140;-92
2021/09/28 09:05:49;;;;;;;5.75;3.42;;;31.40;94.30;;;;;;1829003;76;21172;-92
2021/09/28 09:08:42;;;;;;;6.03;3.98;;;31.30;94.10;;;;;;1846000;74;21260;-93
2021/09/28 09:11:17;;;;;;;5.08;3.50;;;31.20;94.40;;;;;;1885224;75;21113;-91
2021/09/28 09:13:51;;;;;;;6.17;3.55;;;31.20;94.70;;;;;;1873567;75;21733;-92
2021/09/28 09:16:23;;;;;;;7.28;3.77;;;31.20;94.70;;;;;;1883969;76;21171;-92
2021/09/28 09:18:56;;;;;;;4.75;3.20;;;31.20;94.80;;;;;;1877999;76;21072;-91
2021/09/28 09:21:33;;;;;;;8.10;4.65;;;31.10;94.70;;;;;;1883667;76;21100;-93
2021/09/28 09:24:01;;;;;;;7.37;4.53;;;31.10;94.70;;;;;;1890828;74;21183;-91
2021/09/28 09:26:32;;;;;;;6.35;4.35;;;31.10;94.70;;;;;;1880449;76;21128;-92
2021/09/28 09:29:16;;;;;;;8.20;3.83;;;31.20;95.00;;;;;;1854383;75;21654;-92
2021/09/28 09:32:02;;;;;;;7.13;4.27;;;31.20;95.00;;;;;;1875729;76;21096;-92
2021/09/28 09:34:34;;;;;;;20.23;6.90;;;31.20;95.90;;;;;;1763014;79;21268;-94
2021/09/28 09:37:18;;;;;;;9.15;5.78;;;31.10;97.50;;;;;;1765101;80;21247;-93
2021/09/28 09:39:54;;;;;;;8.88;5.03;;;31.00;98.60;;;;;;1775880;80;21245;-91
2021/09/28 09:42:44;;;;;;;7.85;4.70;;;30.90;98.90;;;;;;1775688;79;21202;-92
2021/09/28 09:48:26;;;;;;;8.55;3.98;;;30.60;99.80;;;;;;1771826;79;21126;-92
2021/09/28 09:50:59;;;;;;;5.03;3.60;;;30.50;99.70;;;;;;1770030;80;21143;-93
2021/09/28 09:53:33;;;;;;;6.65;3.10;;;30.40;98.30;;;;;;1762703;80;21178;-92
2021/09/28 09:59:02;;;;;;;4.55;2.98;;;30.10;96.90;;;;;;1834137;75;21228;-92
2021/09/28 10:01:43;;;;;;;5.70;2.65;;;30.00;97.20;;;;;;1867382;74;21628;-95
2021/09/28 10:04:19;;;;;;;4.35;2.90;;;29.90;97.00;;;;;;1867595;75;21207;-95
2021/09/28 10:06:55;;;;;;;5.67;3.55;;;29.90;97.80;;;;;;1872616;75;21111;-92
2021/09/28 10:12:32;;;;;;;7.28;3.75;;;29.90;97.90;;;;;;1841052;78;21170;-95
2021/09/28 10:18:56;;;;;;;7.20;3.62;;;29.80;97.70;;;;;;1847608;76;21303;-92
2021/09/28 10:21:24;;;;;;;4.10;3.35;;;29.80;98.10;;;;;;1815003;78;21218;-94
2021/09/28 10:24:06;;;;;;;6.00;4.15;;;29.80;98.60;;;;;;1886324;75;21180;-93
2021/09/28 10:26:39;;;;;;;7.20;3.52;;;29.80;98.30;;;;;;1855284;76;21090;-94
2021/09/28 10:29:15;;;;;;;6.20;3.47;;;29.70;98.50;;;;;;1890875;76;21172;-94
2021/09/28 10:31:50;;;;;;;6.15;3.95;;;29.70;99.10;;;;;;1823295;77;21147;-95
2021/09/28 10:34:23;;;;;;;7.28;3.77;;;29.70;99.60;;;;;;1857621;77;21241;-93
2021/09/28 10:36:55;;;;;;;7.47;4.17;;;29.60;99.60;;;;;;1845871;76;21172;-93
2021/09/28 10:39:39;;;;;;;7.80;4.28;;;29.60;99.90;;;;;;1792053;78;21213;-94
2021/09/28 10:42:14;;;;;;;7.55;4.30;;;29.50;99.90;;;;;;1867846;76;21172;-92
2021/09/28 10:48:00;;;;;;;6.08;4.12;;;29.30;99.90;;;;;;1911633;73;21148;-95
2021/09/28 10:50:35;;;;;;;8.08;4.47;;;29.20;99.90;;;;;;1913509;74;21126;-94
2021/09/28 10:53:07;;;;;;;6.80;4.15;;;29.10;99.90;;;;;;1923300;73;21234;-92
2021/09/28 10:55:41;;;;;;;10.90;5.10;;;29.10;99.90;;;;;;1929245;73;21622;-93
2021/09/28 10:58:15;;;;;;;10.18;4.83;;;29.00;99.90;;;;;;1945054;73;21148;-94
2021/09/28 11:01:03;;;;;;;6.83;4.50;;;28.90;99.90;;;;;;1879817;74;21188;-93
2021/09/28 11:03:42;;;;;;;8.18;4.97;;;28.80;99.90;;;;;;1889559;74;21193;-94
2021/09/28 11:06:22;;;;;;;6.92;5.00;;;28.80;99.90;;;;;;1912099;73;21206;-92
2021/09/28 11:08:55;;;;;;;10.20;5.35;;;28.80;99.90;;;;;;1854113;75;21229;-94
2021/09/28 11:14:41;;;;;;;9.00;5.65;;;28.70;99.90;;;;;;1803718;77;21349;-95
2021/09/28 11:17:15;;;;;;;11.40;5.08;;;28.70;99.90;;;;;;1801296;77;21080;-91
2021/09/28 11:19:46;;;;;;;7.75;5.12;;;28.70;99.90;;;;;;1814938;77;21183;-91
2021/09/28 11:22:19;;;;;;;6.92;4.78;;;28.60;99.90;;;;;;1809318;77;21111;-91
2021/09/28 11:24:50;;;;;;;9.08;5.40;;;28.60;99.90;;;;;;1804758;77;21233;-92
2021/09/28 11:27:21;;;;;;;9.03;5.65;;;28.60;99.90;;;;;;1826788;77;21147;-90
2021/09/28 11:29:54;;;;;;;7.53;4.78;;;28.60;99.90;;;;;;1820872;77;21194;-91
2021/09/28 11:32:25;;;;;;;11.88;5.83;;;28.60;99.90;;;;;;1811797;78;21191;-91
2021/09/28 11:35:02;;;;;;;16.40;7.33;;;28.60;99.90;;;;;;1810565;77;21684;-90
2021/09/28 11:40:39;;;;;;;9.05;5.90;;;28.60;99.90;;;;;;1809772;77;21138;-91
2021/09/28 11:43:13;;;;;;;10.50;5.85;;;28.60;99.90;;;;;;1802034;76;21119;-91
2021/09/28 11:55:07;;;;;;;12.63;6.72;;;28.80;99.90;;;;;;1855729;73;21138;-91
2021/09/28 11:57:38;;;;;;;10.78;6.80;;;28.80;99.90;;;;;;1922367;74;21104;-91
2021/09/28 12:00:10;;;;;;;13.03;7.12;;;28.70;99.90;;;;;;1902296;74;21221;-91
2021/09/28 12:02:40;;;;;;;11.68;6.90;;;28.70;99.90;;;;;;1895136;74;21174;-91
2021/09/28 12:08:00;;;;;;;9.10;6.60;;;28.60;99.90;;;;;;1883345;75;21261;-91
2021/09/28 12:10:19;;;;;;;9.60;5.60;;;28.60;99.90;;;;;;1896870;75;21123;-91
2021/09/28 12:12:51;;;;;;;14.83;6.45;;;28.50;99.90;;;;;;1916746;74;21130;-91
2021/09/28 12:15:24;;;;;;;9.53;6.70;;;28.50;99.90;;;;;;1902043;74;22418;-91
2021/09/28 12:17:56;;;;;;;9.00;6.28;;;28.50;99.90;;;;;;1850526;76;21154;-92
2021/09/28 12:23:58;;;;;;;9.00;6.15;;;28.40;99.90;;;;;;1922437;74;21179;-91
2021/09/28 12:26:30;;;;;;;8.38;6.10;;;28.40;99.90;;;;;;1939499;73;21119;-91
2021/09/28 12:29:06;;;;;;;11.80;7.28;;;28.40;99.90;;;;;;1926764;73;21140;-91
2021/09/28 12:31:38;;;;;;;11.90;6.87;;;28.40;99.90;;;;;;1906046;75;21212;-91
2021/09/28 12:34:10;;;;;;;13.30;6.65;;;28.40;99.90;;;;;;1918352;74;21136;-91
2021/09/28 12:36:42;;;;;;;11.43;7.30;;;28.40;99.90;;;;;;1931660;74;21551;-91
2021/09/28 12:39:17;;;;;;;11.85;7.10;;;28.30;99.90;;;;;;1935602;73;21610;-89
2021/09/28 12:41:51;;;;;;;12.25;6.15;;;28.30;99.90;;;;;;1943293;73;21627;-90
2021/09/28 12:44:27;;;;;;;11.63;7.22;;;28.30;99.90;;;;;;1929218;74;21119;-90
2021/09/28 12:46:59;;;;;;;12.75;7.37;;;28.30;99.90;;;;;;1905500;74;21084;-92
2021/09/28 12:49:32;;;;;;;12.23;8.18;;;28.40;99.90;;;;;;1898276;74;21482;-92
2021/09/28 12:52:03;;;;;;;13.93;7.67;;;28.40;99.90;;;;;;1899031;74;21173;-91
2021/09/28 12:54:48;;;;;;;11.75;7.00;;;28.40;99.90;;;;;;1901673;74;21142;-89
2021/09/28 12:57:22;;;;;;;12.00;7.22;;;28.40;99.90;;;;;;1920988;74;21113;-86
2021/09/28 13:09:54;;;;;;;10.80;7.40;;;28.30;99.90;;;;;;1911923;74;21181;-83
2021/09/28 13:12:25;;;;;;;12.23;7.42;;;28.20;99.90;;;;;;1905363;74;21147;-85
2021/09/28 13:15:32;;;;;;;12.50;7.10;;;28.30;99.90;;;;;;1920686;73;21107;-82
2021/09/28 13:18:03;;;;;;;13.72;7.15;;;28.20;99.90;;;;;;1926363;73;21110;-83
2021/09/28 13:20:34;;;;;;;11.53;6.92;;;28.20;99.90;;;;;;1924415;73;21205;-84
2021/09/28 13:23:06;;;;;;;15.83;6.95;;;28.30;99.90;;;;;;1937469;73;21157;-84
2021/09/28 13:25:38;;;;;;;15.45;6.70;;;28.20;99.90;;;;;;1902055;73;21219;-84
2021/09/28 13:28:10;;;;;;;10.98;6.95;;;28.30;99.90;;;;;;1873319;74;21115;-84
2021/09/28 13:30:45;;;;;;;10.85;6.95;;;28.20;99.90;;;;;;1898363;73;21597;-83
2021/09/28 13:33:15;;;;;;;10.32;6.75;;;28.30;99.90;;;;;;1859536;74;21152;-84
2021/09/28 13:35:46;;;;;;;17.07;7.12;;;28.20;99.90;;;;;;1897737;74;21204;-83
2021/09/28 13:38:18;;;;;;;14.07;7.58;;;28.20;99.90;;;;;;1914416;73;21106;-85
2021/09/28 13:40:49;;;;;;;17.17;8.98;;;28.20;99.90;;;;;;1949501;73;21700;-84
2021/09/28 13:43:19;;;;;;;16.40;7.83;;;28.10;99.90;;;;;;1944244;73;21198;-84
2021/09/28 13:45:50;;;;;;;18.62;8.65;;;28.10;99.90;;;;;;1924022;73;21100;-84
2021/09/28 13:48:21;;;;;;;14.90;8.70;;;28.10;99.90;;;;;;1898775;74;22031;-84
2021/09/28 13:50:51;;;;;;;13.83;8.50;;;28.10;99.90;;;;;;1908476;74;21228;-83
2021/09/28 13:53:22;;;;;;;14.43;7.67;;;28.10;99.90;;;;;;1918075;73;21130;-82
2021/09/28 13:55:53;;;;;;;13.90;7.37;;;28.10;99.90;;;;;;1918097;73;21152;-85
2021/09/28 13:58:24;;;;;;;11.63;6.97;;;28.20;99.90;;;;;;1893385;74;21164;-83
2021/09/28 14:00:54;;;;;;;10.32;6.85;;;28.20;99.90;;;;;;1883036;74;21218;-84
2021/09/28 14:03:25;;;;;;;20.30;9.10;;;28.20;99.90;;;;;;1911793;73;21086;-83
2021/09/28 14:05:56;;;;;;;17.55;8.58;;;28.30;99.90;;;;;;1926028;73;21194;-84
2021/09/28 14:08:27;;;;;;;18.60;8.18;;;28.20;99.90;;;;;;1899932;74;21896;-85
2021/09/28 14:10:57;;;;;;;13.72;7.65;;;28.20;99.90;;;;;;1913180;73;21181;-91
2021/09/28 14:13:28;;;;;;;14.35;8.75;;;28.10;99.90;;;;;;1963018;73;21638;-91
2021/09/28 14:15:59;;;;;;;17.37;8.48;;;28.10;99.90;;;;;;1918380;74;21754;-91
2021/09/28 14:18:32;;;;;;;13.20;8.93;;;28.00;99.90;;;;;;1904441;73;21527;-90
2021/09/28 14:21:06;;;;;;;14.85;8.40;;;28.00;99.90;;;;;;1829435;77;21150;-90
2021/09/28 14:23:38;;;;;;;16.30;8.18;;;28.00;99.90;;;;;;1820353;75;21185;-88
2021/09/28 14:26:12;;;;;;;15.63;8.95;;;27.90;99.90;;;;;;1856954;76;21648;-88
2021/09/28 14:28:43;;;;;;;17.12;8.18;;;27.90;99.90;;;;;;1847311;75;21124;-90
2021/09/28 14:31:18;;;;;;;13.88;7.60;;;27.90;99.90;;;;;;1945257;73;21176;-89
2021/09/28 14:33:49;;;;;;;12.85;8.40;;;27.90;99.90;;;;;;1933927;74;22099;-90
2021/09/28 14:36:20;;;;;;;16.48;8.33;;;27.90;99.90;;;;;;1869515;76;21144;-89
2021/09/28 14:38:51;;;;;;;15.13;8.10;;;27.90;99.90;;;;;;1924727;74;21177;-89
2021/09/28 14:41:22;;;;;;;14.78;8.48;;;27.80;99.90;;;;;;1905734;74;21086;-90
2021/09/28 14:43:53;;;;;;;14.55;8.15;;;27.80;99.90;;;;;;1916629;73;21120;-88
2021/09/28 14:46:24;;;;;;;17.02;8.30;;;27.80;99.90;;;;;;1914845;74;21141;-88
2021/09/28 14:48:55;;;;;;;11.70;7.97;;;27.80;99.90;;;;;;1897514;74;21326;-89
2021/09/28 14:51:26;;;;;;;17.65;7.47;;;27.80;99.90;;;;;;1906794;74;21159;-88
2021/09/28 14:53:57;;;;;;;15.23;8.08;;;27.80;99.90;;;;;;1917622;73;21664;-89
2021/09/28 14:56:28;;;;;;;13.43;8.10;;;27.80;99.90;;;;;;1916446;73;21307;-90
2021/09/28 14:58:58;;;;;;;13.62;7.75;;;27.70;99.90;;;;;;1918319;73;21056;-89
2021/09/28 15:01:30;;;;;;;13.10;7.42;;;27.70;99.90;;;;;;1909620;73;21209;-89
2021/09/28 15:04:01;;;;;;;11.45;6.85;;;27.70;99.90;;;;;;1933796;73;21121;-89
2021/09/28 15:06:33;;;;;;;14.35;7.55;;;27.70;99.90;;;;;;1932302;73;21202;-88
2021/09/28 15:09:07;;;;;;;10.00;7.35;;;27.70;99.90;;;;;;1960467;73;21600;-88
2021/09/28 15:11:38;;;;;;;9.43;7.05;;;27.70;99.90;;;;;;1905047;73;21205;-88
2021/09/28 15:14:09;;;;;;;10.50;6.83;;;27.60;99.90;;;;;;1915546;74;21104;-89
2021/09/28 15:16:40;;;;;;;10.93;6.12;;;27.70;99.90;;;;;;1927687;74;21120;-89
2021/09/28 15:19:13;;;;;;;14.53;6.87;;;27.70;99.90;;;;;;1927993;73;21088;-89
2021/09/28 15:21:49;;;;;;;10.00;6.08;;;27.60;99.90;;;;;;1947428;72;21109;-88
2021/09/28 15:24:20;;;;;;;11.22;5.85;;;27.60;99.90;;;;;;1938567;72;21100;-89
2021/09/28 15:26:54;;;;;;;9.08;6.08;;;27.60;99.90;;;;;;1955443;72;21134;-89
2021/09/28 15:29:26;;;;;;;12.60;6.40;;;27.60;99.90;;;;;;1955997;72;21128;-90
2021/09/28 15:32:00;;;;;;;10.63;6.12;;;27.60;99.90;;;;;;1924816;72;21220;-90